sensor_id;sensor_type;location;lat;lon;timestamp;pressure;altitude;pressure_sealevel;temperature;humidity
41573;BME280;27286;47.870;19.006;2023-01-27T00:01:16;99309.84;;;-0.26;83.61
41573;BME280;27286;47.870;19.006;2023-01-27T00:03:41;99312.41;;;-0.24;82.94
41573;BME280;27286;47.870;19.006;2023-01-27T00:06:07;99308.97;;;-0.19;79.87
41573;BME280;27286;47.870;19.006;2023-01-27T00:08:36;99311.56;;;-0.13;78.25
41573;BME280;27286;47.870;19.006;2023-01-27T00:11:01;99317.50;;;-0.06;77.60
41573;BME280;27286;47.870;19.006;2023-01-27T00:13:45;99319.22;;;-0.02;76.07
41573;BME280;27286;47.870;19.006;2023-01-27T00:16:11;99314.97;;;0.06;73.50
41573;BME280;27286;47.870;19.006;2023-01-27T00:18:36;99313.22;;;0.14;73.06
41573;BME280;27286;47.870;19.006;2023-01-27T00:21:02;99305.56;;;0.19;72.41
41573;BME280;27286;47.870;19.006;2023-01-27T00:23:46;99310.69;;;0.20;72.17
41573;BME280;27286;47.870;19.006;2023-01-27T00:26:30;99316.66;;;0.21;71.95
41573;BME280;27286;47.870;19.006;2023-01-27T00:28:55;99307.28;;;0.18;70.92
41573;BME280;27286;47.870;19.006;2023-01-27T00:31:21;99298.75;;;0.19;71.58
41573;BME280;27286;47.870;19.006;2023-01-27T00:34:05;99304.69;;;0.21;71.61
41573;BME280;27286;47.870;19.006;2023-01-27T00:36:34;99295.31;;;0.19;71.23
41573;BME280;27286;47.870;19.006;2023-01-27T00:39:01;99295.31;;;0.19;70.42
41573;BME280;27286;47.870;19.006;2023-01-27T00:41:26;99306.41;;;0.24;70.53
41573;BME280;27286;47.870;19.006;2023-01-27T00:43:53;99304.69;;;0.21;71.09
41573;BME280;27286;47.870;19.006;2023-01-27T00:46:22;99295.31;;;0.13;71.31
41573;BME280;27286;47.870;19.006;2023-01-27T00:48:49;99298.75;;;0.10;72.36
41573;BME280;27286;47.870;19.006;2023-01-27T00:51:16;99297.91;;;0.07;71.14
41573;BME280;27286;47.870;19.006;2023-01-27T00:53:41;99301.28;;;0.10;71.12
41573;BME280;27286;47.870;19.006;2023-01-27T00:56:07;99308.13;;;0.10;72.16
41573;BME280;27286;47.870;19.006;2023-01-27T00:58:33;99297.03;;;0.06;72.08
41573;BME280;27286;47.870;19.006;2023-01-27T01:01:00;99297.03;;;0.05;71.44
41573;BME280;27286;47.870;19.006;2023-01-27T01:03:28;99299.59;;;0.05;70.81
41573;BME280;27286;47.870;19.006;2023-01-27T01:05:58;99303.00;;;0.11;71.13
41573;BME280;27286;47.870;19.006;2023-01-27T01:08:23;99302.16;;;0.05;71.13
41573;BME280;27286;47.870;19.006;2023-01-27T01:10:49;99305.56;;;0.05;71.12
41573;BME280;27286;47.870;19.006;2023-01-27T01:13:15;99296.19;;;0.06;70.60
41573;BME280;27286;47.870;19.006;2023-01-27T01:15:40;99300.47;;;0.01;71.58
41573;BME280;27286;47.870;19.006;2023-01-27T01:18:07;99296.19;;;-0.01;72.12
41573;BME280;27286;47.870;19.006;2023-01-27T01:20:40;99297.03;;;0.08;70.56
41573;BME280;27286;47.870;19.006;2023-01-27T01:23:07;99291.91;;;0.06;70.96
41573;BME280;27286;47.870;19.006;2023-01-27T01:25:33;99291.94;;;0.00;71.21
41573;BME280;27286;47.870;19.006;2023-01-27T01:27:59;99291.91;;;-0.03;71.02
41573;BME280;27286;47.870;19.006;2023-01-27T01:30:24;99291.91;;;-0.05;71.82
41573;BME280;27286;47.870;19.006;2023-01-27T01:32:55;99287.66;;;-0.09;72.70
41573;BME280;27286;47.870;19.006;2023-01-27T01:35:22;99283.41;;;-0.08;72.20
41573;BME280;27286;47.870;19.006;2023-01-27T01:37:49;99279.97;;;-0.06;72.35
41573;BME280;27286;47.870;19.006;2023-01-27T01:40:15;99279.97;;;-0.04;71.84
41573;BME280;27286;47.870;19.006;2023-01-27T01:43:00;99279.97;;;-0.04;72.62
41573;BME280;27286;47.870;19.006;2023-01-27T01:48:03;99276.56;;;-0.08;73.72
41573;BME280;27286;47.870;19.006;2023-01-27T01:50:31;99281.72;;;-0.11;74.65
41573;BME280;27286;47.870;19.006;2023-01-27T01:52:58;99277.44;;;-0.18;74.91
41573;BME280;27286;47.870;19.006;2023-01-27T01:55:26;99270.63;;;-0.28;75.86
41573;BME280;27286;47.870;19.006;2023-01-27T01:57:51;99277.44;;;-0.27;76.74
41573;BME280;27286;47.870;19.006;2023-01-27T02:00:17;99279.16;;;-0.29;77.26
41573;BME280;27286;47.870;19.006;2023-01-27T02:02:43;99278.31;;;-0.29;77.95
41573;BME280;27286;47.870;19.006;2023-01-27T02:05:16;99280.88;;;-0.29;78.00
41573;BME280;27286;47.870;19.006;2023-01-27T02:07:50;99279.16;;;-0.27;77.40
41573;BME280;27286;47.870;19.006;2023-01-27T02:10:19;99269.78;;;-0.24;76.42
41573;BME280;27286;47.870;19.006;2023-01-27T02:12:45;99270.59;;;-0.19;76.38
41573;BME280;27286;47.870;19.006;2023-01-27T02:15:10;99281.72;;;-0.14;76.07
41573;BME280;27286;47.870;19.006;2023-01-27T02:17:36;99274.03;;;-0.14;75.98
41573;BME280;27286;47.870;19.006;2023-01-27T02:20:14;99270.63;;;-0.16;76.64
41573;BME280;27286;47.870;19.006;2023-01-27T02:28:01;99263.81;;;-0.27;80.77
41573;BME280;27286;47.870;19.006;2023-01-27T02:30:27;99262.13;;;-0.33;81.69
41573;BME280;27286;47.870;19.006;2023-01-27T02:32:53;99267.22;;;-0.39;82.22
41573;BME280;27286;47.870;19.006;2023-01-27T02:35:26;99256.97;;;-0.42;82.88
41573;BME280;27286;47.870;19.006;2023-01-27T02:37:56;99255.28;;;-0.49;83.59
41573;BME280;27286;47.870;19.006;2023-01-27T02:40:22;99257.81;;;-0.54;84.59
41573;BME280;27286;47.870;19.006;2023-01-27T02:42:49;99250.16;;;-0.62;84.75
41573;BME280;27286;47.870;19.006;2023-01-27T02:45:14;99246.75;;;-0.76;85.36
41573;BME280;27286;47.870;19.006;2023-01-27T02:47:40;99252.69;;;-0.87;86.08
41573;BME280;27286;47.870;19.006;2023-01-27T02:50:06;99251.81;;;-0.97;86.94
41573;BME280;27286;47.870;19.006;2023-01-27T02:52:31;99244.13;;;-1.06;86.25
41573;BME280;27286;47.870;19.006;2023-01-27T02:54:57;99233.91;;;-1.14;87.03
41573;BME280;27286;47.870;19.006;2023-01-27T02:57:22;99242.38;;;-1.24;87.43
41573;BME280;27286;47.870;19.006;2023-01-27T02:59:47;99238.06;;;-1.36;87.47
41573;BME280;27286;47.870;19.006;2023-01-27T03:02:13;99227.84;;;-1.46;86.66
41573;BME280;27286;47.870;19.006;2023-01-27T03:04:39;99224.38;;;-1.56;87.48
41573;BME280;27286;47.870;19.006;2023-01-27T03:07:05;99232.91;;;-1.59;87.88
41573;BME280;27286;47.870;19.006;2023-01-27T03:09:30;99231.97;;;-1.68;87.95
41573;BME280;27286;47.870;19.006;2023-01-27T03:11:56;99231.13;;;-1.73;88.54
41573;BME280;27286;47.870;19.006;2023-01-27T03:14:39;99226.84;;;-1.79;88.33
41573;BME280;27286;47.870;19.006;2023-01-27T03:17:23;99230.25;;;-1.80;88.31
41573;BME280;27286;47.870;19.006;2023-01-27T03:20:08;99225.97;;;-1.84;88.03
41573;BME280;27286;47.870;19.006;2023-01-27T03:22:34;99230.19;;;-1.89;87.87
41573;BME280;27286;47.870;19.006;2023-01-27T03:24:59;99223.34;;;-1.98;88.10
41573;BME280;27286;47.870;19.006;2023-01-27T03:27:24;99220.81;;;-1.98;88.18
41573;BME280;27286;47.870;19.006;2023-01-27T03:29:50;99218.25;;;-2.01;88.31
41573;BME280;27286;47.870;19.006;2023-01-27T03:32:27;99221.59;;;-2.05;88.43
41573;BME280;27286;47.870;19.006;2023-01-27T03:34:53;99212.22;;;-2.09;88.23
41573;BME280;27286;47.870;19.006;2023-01-27T03:37:26;99212.22;;;-2.14;88.13
41573;BME280;27286;47.870;19.006;2023-01-27T03:40:11;99201.94;;;-2.24;88.70
41573;BME280;27286;47.870;19.006;2023-01-27T03:42:55;99201.03;;;-2.32;89.07
41573;BME280;27286;47.870;19.006;2023-01-27T03:45:44;99200.19;;;-2.31;89.20
41573;BME280;27286;47.870;19.006;2023-01-27T03:48:29;99190.78;;;-2.38;88.98
41573;BME280;27286;47.870;19.006;2023-01-27T03:50:57;99198.41;;;-2.43;89.21
41573;BME280;27286;47.870;19.006;2023-01-27T03:53:23;99195.81;;;-2.51;89.43
41573;BME280;27286;47.870;19.006;2023-01-27T03:55:48;99196.63;;;-2.55;89.85
41573;BME280;27286;47.870;19.006;2023-01-27T03:58:34;99193.19;;;-2.61;90.31
41573;BME280;27286;47.870;19.006;2023-01-27T04:01:20;99196.56;;;-2.64;91.00
41573;BME280;27286;47.870;19.006;2023-01-27T04:03:46;99194.00;;;-2.67;91.09
41573;BME280;27286;47.870;19.006;2023-01-27T04:06:32;99199.03;;;-2.72;91.53
41573;BME280;27286;47.870;19.006;2023-01-27T04:11:48;99192.19;;;-2.79;92.53
41573;BME280;27286;47.870;19.006;2023-01-27T04:14:23;99190.50;;;-2.78;92.58
41573;BME280;27286;47.870;19.006;2023-01-27T04:16:50;99193.09;;;-2.70;91.86
41573;BME280;27286;47.870;19.006;2023-01-27T04:19:16;99195.72;;;-2.64;91.08
41573;BME280;27286;47.870;19.006;2023-01-27T04:21:42;99186.38;;;-2.61;90.80
41573;BME280;27286;47.870;19.006;2023-01-27T04:24:10;99188.97;;;-2.55;90.13
41573;BME280;27286;47.870;19.006;2023-01-27T04:26:42;99194.13;;;-2.52;90.04
41573;BME280;27286;47.870;19.006;2023-01-27T04:29:08;99195.78;;;-2.52;89.82
41573;BME280;27286;47.870;19.006;2023-01-27T04:31:33;99192.38;;;-2.54;89.93
41573;BME280;27286;47.870;19.006;2023-01-27T04:33:59;99193.19;;;-2.60;90.24
41573;BME280;27286;47.870;19.006;2023-01-27T04:36:24;99189.81;;;-2.59;90.42
41573;BME280;27286;47.870;19.006;2023-01-27T04:38:50;99188.94;;;-2.62;90.68
41573;BME280;27286;47.870;19.006;2023-01-27T04:41:15;99187.22;;;-2.66;91.33
41573;BME280;27286;47.870;19.006;2023-01-27T04:43:41;99193.09;;;-2.69;91.53
41573;BME280;27286;47.870;19.006;2023-01-27T04:46:06;99187.16;;;-2.69;91.39
41573;BME280;27286;47.870;19.006;2023-01-27T04:48:32;99185.47;;;-2.69;91.77
41573;BME280;27286;47.870;19.006;2023-01-27T04:50:57;99175.25;;;-2.72;91.58
41573;BME280;27286;47.870;19.006;2023-01-27T04:53:23;99181.16;;;-2.78;92.12
41573;BME280;27286;47.870;19.006;2023-01-27T04:55:48;99176.84;;;-2.86;92.51
41573;BME280;27286;47.870;19.006;2023-01-27T04:58:15;99179.28;;;-2.98;92.93
41573;BME280;27286;47.870;19.006;2023-01-27T05:00:45;99178.34;;;-3.07;93.71
41573;BME280;27286;47.870;19.006;2023-01-27T05:03:10;99174.91;;;-3.15;94.72
41573;BME280;27286;47.870;19.006;2023-01-27T05:05:37;99172.25;;;-3.22;95.07
41573;BME280;27286;47.870;19.006;2023-01-27T05:08:06;99184.16;;;-3.23;95.50
41573;BME280;27286;47.870;19.006;2023-01-27T05:10:32;99187.50;;;-3.28;95.79
41573;BME280;27286;47.870;19.006;2023-01-27T05:12:58;99190.91;;;-3.25;95.94
41573;BME280;27286;47.870;19.006;2023-01-27T05:15:24;99190.06;;;-3.25;96.04
41573;BME280;27286;47.870;19.006;2023-01-27T05:17:50;99185.81;;;-3.26;95.69
41573;BME280;27286;47.870;19.006;2023-01-27T05:20:15;99184.13;;;-3.26;95.38
41573;BME280;27286;47.870;19.006;2023-01-27T05:22:41;99186.63;;;-3.29;95.97
41573;BME280;27286;47.870;19.006;2023-01-27T05:25:07;99199.41;;;-3.26;96.29
41573;BME280;27286;47.870;19.006;2023-01-27T05:27:33;99196.00;;;-3.25;95.98
41573;BME280;27286;47.870;19.006;2023-01-27T05:29:58;99192.66;;;-3.21;95.98
41573;BME280;27286;47.870;19.006;2023-01-27T05:32:24;99195.28;;;-3.15;96.01
41573;BME280;27286;47.870;19.006;2023-01-27T05:34:49;99197.88;;;-3.09;96.20
41573;BME280;27286;47.870;19.006;2023-01-27T05:37:14;99185.13;;;-3.09;95.54
41573;BME280;27286;47.870;19.006;2023-01-27T05:39:40;99191.97;;;-3.05;95.88
41573;BME280;27286;47.870;19.006;2023-01-27T05:42:05;99180.97;;;-3.02;95.73
41573;BME280;27286;47.870;19.006;2023-01-27T05:44:31;99187.81;;;-2.96;95.76
41573;BME280;27286;47.870;19.006;2023-01-27T05:46:56;99189.53;;;-2.92;95.98
41573;BME280;27286;47.870;19.006;2023-01-27T05:49:21;99189.56;;;-2.86;95.81
41573;BME280;27286;47.870;19.006;2023-01-27T05:51:47;99186.22;;;-2.82;96.10
41573;BME280;27286;47.870;19.006;2023-01-27T05:54:12;99190.53;;;-2.74;95.63
41573;BME280;27286;47.870;19.006;2023-01-27T05:56:38;99197.44;;;-2.62;94.80
41573;BME280;27286;47.870;19.006;2023-01-27T05:59:05;99195.81;;;-2.51;93.85
41573;BME280;27286;47.870;19.006;2023-01-27T06:01:32;99191.59;;;-2.49;94.11
41573;BME280;27286;47.870;19.006;2023-01-27T06:03:57;99190.69;;;-2.52;94.62
41573;BME280;27286;47.870;19.006;2023-01-27T06:06:25;99191.56;;;-2.50;94.35
41573;BME280;27286;47.870;19.006;2023-01-27T06:08:51;99182.22;;;-2.51;94.69
41573;BME280;27286;47.870;19.006;2023-01-27T06:11:18;99190.78;;;-2.42;94.68
41573;BME280;27286;47.870;19.006;2023-01-27T06:13:48;99185.66;;;-2.43;94.60
41573;BME280;27286;47.870;19.006;2023-01-27T06:16:15;99185.66;;;-2.43;95.03
41573;BME280;27286;47.870;19.006;2023-01-27T06:18:42;99195.88;;;-2.40;95.01
41573;BME280;27286;47.870;19.006;2023-01-27T06:21:09;99198.41;;;-2.42;94.88
41573;BME280;27286;47.870;19.006;2023-01-27T06:23:35;99198.44;;;-2.37;95.60
41573;BME280;27286;47.870;19.006;2023-01-27T06:26:03;99201.06;;;-2.29;95.37
41573;BME280;27286;47.870;19.006;2023-01-27T06:28:29;99205.31;;;-2.25;95.63
41573;BME280;27286;47.870;19.006;2023-01-27T06:30:55;99206.25;;;-2.17;95.50
41573;BME280;27286;47.870;19.006;2023-01-27T06:33:21;99217.31;;;-2.10;95.29
41573;BME280;27286;47.870;19.006;2023-01-27T06:35:46;99207.97;;;-2.07;95.18
41573;BME280;27286;47.870;19.006;2023-01-27T06:38:12;99208.91;;;-1.99;95.03
41573;BME280;27286;47.870;19.006;2023-01-27T06:40:39;99212.31;;;-1.94;95.37
41573;BME280;27286;47.870;19.006;2023-01-27T06:43:10;99214.03;;;-1.90;94.93
41573;BME280;27286;47.870;19.006;2023-01-27T06:45:36;99218.34;;;-1.83;94.78
41573;BME280;27286;47.870;19.006;2023-01-27T06:48:02;99214.94;;;-1.82;94.64
41573;BME280;27286;47.870;19.006;2023-01-27T06:50:28;99213.22;;;-1.83;94.59
41573;BME280;27286;47.870;19.006;2023-01-27T06:53:01;99220.03;;;-1.78;94.45
41573;BME280;27286;47.870;19.006;2023-01-27T06:55:28;99220.91;;;-1.76;94.43
41573;BME280;27286;47.870;19.006;2023-01-27T06:57:54;99216.66;;;-1.76;94.18
41573;BME280;27286;47.870;19.006;2023-01-27T07:00:19;99195.34;;;-1.86;93.88
41573;BME280;27286;47.870;19.006;2023-01-27T07:02:45;99204.75;;;-1.74;93.71
41573;BME280;27286;47.870;19.006;2023-01-27T07:05:11;99202.19;;;-1.72;94.09
41573;BME280;27286;47.870;19.006;2023-01-27T07:07:37;99206.44;;;-1.73;93.95
41573;BME280;27286;47.870;19.006;2023-01-27T07:10:04;99205.59;;;-1.70;93.81
41573;BME280;27286;47.870;19.006;2023-01-27T07:12:30;99204.78;;;-1.68;93.73
41573;BME280;27286;47.870;19.006;2023-01-27T07:14:55;99208.22;;;-1.63;93.83
41573;BME280;27286;47.870;19.006;2023-01-27T07:17:21;99211.63;;;-1.58;93.69
41573;BME280;27286;47.870;19.006;2023-01-27T07:19:46;99203.97;;;-1.56;93.63
41573;BME280;27286;47.870;19.006;2023-01-27T07:22:12;99199.72;;;-1.54;92.86
41573;BME280;27286;47.870;19.006;2023-01-27T07:24:37;99192.94;;;-1.49;92.36
41573;BME280;27286;47.870;19.006;2023-01-27T07:27:03;99208.28;;;-1.40;91.26
41573;BME280;27286;47.870;19.006;2023-01-27T07:29:28;99208.31;;;-1.29;90.67
41573;BME280;27286;47.870;19.006;2023-01-27T07:31:54;99202.41;;;-1.14;89.93
41573;BME280;27286;47.870;19.006;2023-01-27T07:34:19;99200.69;;;-1.03;89.71
41573;BME280;27286;47.870;19.006;2023-01-27T07:36:44;99204.97;;;-0.98;89.83
41573;BME280;27286;47.870;19.006;2023-01-27T07:39:10;99210.94;;;-0.93;89.54
41573;BME280;27286;47.870;19.006;2023-01-27T07:41:35;99203.28;;;-0.86;89.38
41573;BME280;27286;47.870;19.006;2023-01-27T07:44:01;99204.13;;;-0.77;89.66
41573;BME280;27286;47.870;19.006;2023-01-27T07:46:26;99204.16;;;-0.65;89.05
41573;BME280;27286;47.870;19.006;2023-01-27T07:48:52;99216.06;;;-0.54;88.17
41573;BME280;27286;47.870;19.006;2023-01-27T07:51:17;99212.69;;;-0.50;87.18
41573;BME280;27286;47.870;19.006;2023-01-27T07:53:43;99214.38;;;-0.46;87.13
41573;BME280;27286;47.870;19.006;2023-01-27T07:56:08;99205.00;;;-0.44;86.32
41573;BME280;27286;47.870;19.006;2023-01-27T07:58:37;99200.72;;;-0.42;85.70
41573;BME280;27286;47.870;19.006;2023-01-27T08:01:07;99194.75;;;-0.40;84.72
41573;BME280;27286;47.870;19.006;2023-01-27T08:03:34;99194.72;;;-0.35;83.85
41573;BME280;27286;47.870;19.006;2023-01-27T08:06:06;99199.00;;;-0.31;84.38
41573;BME280;27286;47.870;19.006;2023-01-27T08:08:32;99199.00;;;-0.25;84.51
41573;BME280;27286;47.870;19.006;2023-01-27T08:10:59;99198.97;;;-0.19;84.82
41573;BME280;27286;47.870;19.006;2023-01-27T08:13:25;99184.47;;;-0.14;85.29
41573;BME280;27286;47.870;19.006;2023-01-27T08:16:00;99195.53;;;0.02;85.63
41573;BME280;27286;47.870;19.006;2023-01-27T08:18:27;99197.22;;;0.09;85.43
41573;BME280;27286;47.870;19.006;2023-01-27T08:20:54;99199.75;;;0.20;85.02
41573;BME280;27286;47.870;19.006;2023-01-27T08:23:20;99203.09;;;0.29;84.23
41573;BME280;27286;47.870;19.006;2023-01-27T08:25:54;99206.50;;;0.41;83.80
41573;BME280;27286;47.870;19.006;2023-01-27T08:28:21;99215.03;;;0.40;82.88
41573;BME280;27286;47.870;19.006;2023-01-27T08:30:47;99205.69;;;0.34;82.85
41573;BME280;27286;47.870;19.006;2023-01-27T08:33:19;99201.38;;;0.32;82.41
41573;BME280;27286;47.870;19.006;2023-01-27T08:35:45;99205.69;;;0.28;81.66
41573;BME280;27286;47.870;19.006;2023-01-27T08:38:12;99206.56;;;0.21;80.90
41573;BME280;27286;47.870;19.006;2023-01-27T08:40:39;99205.69;;;0.25;81.02
41573;BME280;27286;47.870;19.006;2023-01-27T08:43:05;99213.34;;;0.31;80.66
41573;BME280;27286;47.870;19.006;2023-01-27T08:45:31;99213.34;;;0.34;80.58
41573;BME280;27286;47.870;19.006;2023-01-27T08:47:56;99211.59;;;0.41;80.46
41573;BME280;27286;47.870;19.006;2023-01-27T08:50:22;99207.31;;;0.44;80.28
41573;BME280;27286;47.870;19.006;2023-01-27T08:52:47;99209.03;;;0.45;80.67
41573;BME280;27286;47.870;19.006;2023-01-27T08:55:13;99211.56;;;0.47;80.38
41573;BME280;27286;47.870;19.006;2023-01-27T08:57:39;99205.59;;;0.52;79.53
41573;BME280;27286;47.870;19.006;2023-01-27T09:00:07;99203.00;;;0.57;78.09
41573;BME280;27286;47.870;19.006;2023-01-27T09:02:32;99211.50;;;0.64;75.66
41573;BME280;27286;47.870;19.006;2023-01-27T09:04:58;99208.06;;;0.69;75.95
41573;BME280;27286;47.870;19.006;2023-01-27T09:07:23;99218.22;;;0.87;75.88
41573;BME280;27286;47.870;19.006;2023-01-27T09:09:49;99214.72;;;0.99;74.89
41573;BME280;27286;47.870;19.006;2023-01-27T09:12:15;99212.88;;;1.16;74.09
41573;BME280;27286;47.870;19.006;2023-01-27T09:14:40;99212.91;;;1.19;73.64
41573;BME280;27286;47.870;19.006;2023-01-27T09:17:06;99210.25;;;1.29;73.75
41573;BME280;27286;47.870;19.006;2023-01-27T09:19:31;99212.75;;;1.33;73.48
41573;BME280;27286;47.870;19.006;2023-01-27T09:21:57;99217.03;;;1.37;72.65
41573;BME280;27286;47.870;19.006;2023-01-27T09:24:23;99205.09;;;1.35;72.70
41573;BME280;27286;47.870;19.006;2023-01-27T09:26:48;99212.72;;;1.41;73.06
41573;BME280;27286;47.870;19.006;2023-01-27T09:29:14;99215.25;;;1.44;72.84
41573;BME280;27286;47.870;19.006;2023-01-27T09:31:39;99212.63;;;1.50;72.25
41573;BME280;27286;47.870;19.006;2023-01-27T09:34:05;99219.41;;;1.59;71.47
41573;BME280;27286;47.870;19.006;2023-01-27T09:36:32;99226.19;;;1.64;70.60
41573;BME280;27286;47.870;19.006;2023-01-27T09:39:05;99214.16;;;1.72;70.46
41573;BME280;27286;47.870;19.006;2023-01-27T09:41:57;99227.78;;;1.77;69.56
41573;BME280;27286;47.870;19.006;2023-01-27T09:58:21;99225.78;;;2.08;67.00
41573;BME280;27286;47.870;19.006;2023-01-27T10:04:24;99214.53;;;2.20;65.77
41573;BME280;27286;47.870;19.006;2023-01-27T10:17:33;99196.06;;;2.60;61.67
41573;BME280;27286;47.870;19.006;2023-01-27T10:20:22;99191.72;;;2.63;62.78
41573;BME280;27286;47.870;19.006;2023-01-27T10:23:26;99191.84;;;3.16;62.06
41573;BME280;27286;47.870;19.006;2023-01-27T10:28:50;99186.31;;;3.91;56.20
41573;BME280;27286;47.870;19.006;2023-01-27T10:38:59;99195.06;;;3.81;56.29
41573;BME280;27286;47.870;19.006;2023-01-27T10:49:59;99193.31;;;2.75;60.75
41573;BME280;27286;47.870;19.006;2023-01-27T10:52:39;99192.66;;;2.59;62.55
41573;BME280;27286;47.870;19.006;2023-01-27T10:57:52;99197.25;;;2.36;62.61
41573;BME280;27286;47.870;19.006;2023-01-27T11:00:33;99193.03;;;2.29;65.21
41573;BME280;27286;47.870;19.006;2023-01-27T11:05:41;99189.84;;;2.07;67.44
41573;BME280;27286;47.870;19.006;2023-01-27T11:08:15;99185.72;;;1.94;69.89
41573;BME280;27286;47.870;19.006;2023-01-27T11:10:46;99190.09;;;1.86;69.36
41573;BME280;27286;47.870;19.006;2023-01-27T11:13:32;99189.25;;;1.80;69.34
41573;BME280;27286;47.870;19.006;2023-01-27T11:15:59;99186.72;;;1.79;70.34
41573;BME280;27286;47.870;19.006;2023-01-27T11:18:31;99187.63;;;1.75;70.22
41573;BME280;27286;47.870;19.006;2023-01-27T11:21:02;99191.00;;;1.78;71.28
41573;BME280;27286;47.870;19.006;2023-01-27T11:23:37;99191.00;;;1.78;72.45
41573;BME280;27286;47.870;19.006;2023-01-27T11:31:52;99183.41;;;1.69;75.28
41573;BME280;27286;47.870;19.006;2023-01-27T11:36:49;99189.44;;;1.64;75.47
41573;BME280;27286;47.870;19.006;2023-01-27T11:39:15;99185.19;;;1.60;76.81
41573;BME280;27286;47.870;19.006;2023-01-27T11:41:50;99178.41;;;1.56;77.96
41573;BME280;27286;47.870;19.006;2023-01-27T11:44:19;99180.19;;;1.46;78.72
41573;BME280;27286;47.870;19.006;2023-01-27T11:46:45;99162.34;;;1.31;78.99
41573;BME280;27286;47.870;19.006;2023-01-27T11:49:17;99179.44;;;1.35;78.97
41573;BME280;27286;47.870;19.006;2023-01-27T11:51:45;99171.78;;;1.27;79.37
41573;BME280;27286;47.870;19.006;2023-01-27T11:54:17;99175.28;;;1.20;80.24
41573;BME280;27286;47.870;19.006;2023-01-27T11:56:47;99177.91;;;1.11;80.35
41573;BME280;27286;47.870;19.006;2023-01-27T11:59:22;99187.41;;;0.97;81.35
41573;BME280;27286;47.870;19.006;2023-01-27T12:07:16;99178.88;;;0.95;84.08
41573;BME280;27286;47.870;19.006;2023-01-27T12:09:43;99169.47;;;0.95;83.82
41573;BME280;27286;47.870;19.006;2023-01-27T12:12:10;99177.09;;;1.04;83.55
41573;BME280;27286;47.870;19.006;2023-01-27T12:14:36;99171.97;;;1.04;84.14
41573;BME280;27286;47.870;19.006;2023-01-27T12:17:02;99171.09;;;1.08;84.67
41573;BME280;27286;47.870;19.006;2023-01-27T12:19:39;99172.81;;;1.06;84.83
41573;BME280;27286;47.870;19.006;2023-01-27T12:22:25;99168.53;;;1.07;84.68
41573;BME280;27286;47.870;19.006;2023-01-27T12:24:52;99159.97;;;1.08;85.03
41573;BME280;27286;47.870;19.006;2023-01-27T12:27:29;99159.13;;;1.07;85.39
41573;BME280;27286;47.870;19.006;2023-01-27T12:30:00;99154.03;;;1.06;85.22
41573;BME280;27286;47.870;19.006;2023-01-27T12:32:39;99153.19;;;1.04;86.56
41573;BME280;27286;47.870;19.006;2023-01-27T12:35:15;99151.50;;;1.01;87.06
41573;BME280;27286;47.870;19.006;2023-01-27T12:37:42;99144.63;;;1.00;87.22
41573;BME280;27286;47.870;19.006;2023-01-27T12:40:19;99130.16;;;0.96;87.12
41573;BME280;27286;47.870;19.006;2023-01-27T12:43:04;99133.59;;;0.94;87.71
41573;BME280;27286;47.870;19.006;2023-01-27T12:45:31;99136.19;;;0.90;88.51
41573;BME280;27286;47.870;19.006;2023-01-27T12:55:35;99121.53;;;1.06;88.97
41573;BME280;27286;47.870;19.006;2023-01-27T12:58:03;99118.03;;;1.19;88.85
41573;BME280;27286;47.870;19.006;2023-01-27T13:00:29;99117.88;;;1.32;88.53
41573;BME280;27286;47.870;19.006;2023-01-27T13:03:04;99122.06;;;1.45;87.53
41573;BME280;27286;47.870;19.006;2023-01-27T13:05:37;99125.31;;;1.61;86.92
41573;BME280;27286;47.870;19.006;2023-01-27T13:08:04;99130.31;;;1.73;86.45
41573;BME280;27286;47.870;19.006;2023-01-27T13:10:30;99111.53;;;1.72;85.13
41573;BME280;27286;47.870;19.006;2023-01-27T13:12:58;99131.81;;;1.92;85.10
41573;BME280;27286;47.870;19.006;2023-01-27T13:15:29;99117.25;;;1.94;84.60
41573;BME280;27286;47.870;19.006;2023-01-27T13:17:59;99120.63;;;1.98;85.02
41573;BME280;27286;47.870;19.006;2023-01-27T13:20:39;99112.84;;;2.05;84.63
41573;BME280;27286;47.870;19.006;2023-01-27T13:23:14;99125.53;;;2.19;84.80
41573;BME280;27286;47.870;19.006;2023-01-27T13:26:08;99142.59;;;2.23;84.17
41573;BME280;27286;47.870;19.006;2023-01-27T13:31:08;99159.13;;;1.98;83.91
41573;BME280;27286;47.870;19.006;2023-01-27T13:33:48;99159.22;;;1.92;84.89
41573;BME280;27286;47.870;19.006;2023-01-27T13:41:21;99154.16;;;1.84;84.92
41573;BME280;27286;47.870;19.006;2023-01-27T13:43:56;99165.44;;;1.71;84.75
41573;BME280;27286;47.870;19.006;2023-01-27T13:46:24;99168.06;;;1.62;84.76
41573;BME280;27286;47.870;19.006;2023-01-27T13:48:53;99148.53;;;1.47;85.58
41573;BME280;27286;47.870;19.006;2023-01-27T13:51:21;99158.03;;;1.34;87.23
41573;BME280;27286;47.870;19.006;2023-01-27T13:53:55;99151.34;;;1.19;87.70
41573;BME280;27286;47.870;19.006;2023-01-27T14:05:01;99161.09;;;0.72;90.66
41573;BME280;27286;47.870;19.006;2023-01-27T14:18:59;99153.47;;;0.59;91.02
41573;BME280;27286;47.870;19.006;2023-01-27T14:26:55;99147.59;;;0.33;92.89
41573;BME280;27286;47.870;19.006;2023-01-27T14:29:46;99145.94;;;0.29;93.51
41573;BME280;27286;47.870;19.006;2023-01-27T14:40:38;99146.84;;;0.20;94.73
41573;BME280;27286;47.870;19.006;2023-01-27T14:45:51;99150.22;;;0.24;95.94
41573;BME280;27286;47.870;19.006;2023-01-27T14:55:57;99141.59;;;0.45;94.98
41573;BME280;27286;47.870;19.006;2023-01-27T15:09:24;99138.94;;;0.60;94.85
41573;BME280;27286;47.870;19.006;2023-01-27T15:25:45;99151.00;;;0.43;94.52
41573;BME280;27286;47.870;19.006;2023-01-27T15:27:57;99153.56;;;0.40;94.35
41573;BME280;27286;47.870;19.006;2023-01-27T15:32:54;99158.72;;;0.32;94.76
41573;BME280;27286;47.870;19.006;2023-01-27T15:35:34;99160.44;;;0.27;95.19
41573;BME280;27286;47.870;19.006;2023-01-27T15:40:29;99156.22;;;0.20;95.15
41573;BME280;27286;47.870;19.006;2023-01-27T15:45:26;99164.78;;;0.17;95.86
41573;BME280;27286;47.870;19.006;2023-01-27T15:50:30;99160.50;;;0.15;96.44
41573;BME280;27286;47.870;19.006;2023-01-27T15:53:30;99164.78;;;0.08;97.68
41573;BME280;27286;47.870;19.006;2023-01-27T15:55:58;99158.00;;;0.04;98.08